sensor_id;sensor_type;location;lat;lon;timestamp;temperature;humidity
5415;DHT22;2730;51.512;7.504;2023-05-19T00:00:02;8.50;99.90
5415;DHT22;2730;51.512;7.504;2023-05-19T00:02:29;8.40;99.90
5415;DHT22;2730;51.512;7.504;2023-05-19T00:04:58;8.30;99.90
5415;DHT22;2730;51.512;7.504;2023-05-19T00:07:30;8.30;1.00
5415;DHT22;2730;51.512;7.504;2023-05-19T00:09:57;8.30;1.00
5415;DHT22;2730;51.512;7.504;2023-05-19T00:12:25;8.30;1.00
5415;DHT22;2730;51.512;7.504;2023-05-19T00:14:52;8.30;1.00
5415;DHT22;2730;51.512;7.504;2023-05-19T00:17:19;8.30;1.00
5415;DHT22;2730;51.512;7.504;2023-05-19T00:19:46;8.30;1.00
5415;DHT22;2730;51.512;7.504;2023-05-19T00:22:13;8.30;1.00
5415;DHT22;2730;51.512;7.504;2023-05-19T00:24:41;8.30;1.00
5415;DHT22;2730;51.512;7.504;2023-05-19T00:27:08;8.30;1.00
5415;DHT22;2730;51.512;7.504;2023-05-19T00:29:35;8.20;1.00
5415;DHT22;2730;51.512;7.504;2023-05-19T00:32:02;8.20;1.00
5415;DHT22;2730;51.512;7.504;2023-05-19T00:34:29;8.20;1.00
5415;DHT22;2730;51.512;7.504;2023-05-19T00:36:55;8.20;1.00
5415;DHT22;2730;51.512;7.504;2023-05-19T00:39:22;8.10;1.00
5415;DHT22;2730;51.512;7.504;2023-05-19T00:41:50;8.10;1.00
5415;DHT22;2730;51.512;7.504;2023-05-19T00:44:17;8.00;1.00
5415;DHT22;2730;51.512;7.504;2023-05-19T00:46:44;8.00;1.00
5415;DHT22;2730;51.512;7.504;2023-05-19T00:49:10;8.00;1.00
5415;DHT22;2730;51.512;7.504;2023-05-19T00:51:37;8.00;1.00
5415;DHT22;2730;51.512;7.504;2023-05-19T00:54:04;8.00;1.00
5415;DHT22;2730;51.512;7.504;2023-05-19T00:56:31;7.90;1.00
5415;DHT22;2730;51.512;7.504;2023-05-19T00:59:00;7.90;1.00
5415;DHT22;2730;51.512;7.504;2023-05-19T01:01:27;7.90;1.00
5415;DHT22;2730;51.512;7.504;2023-05-19T01:03:53;7.90;1.00
5415;DHT22;2730;51.512;7.504;2023-05-19T01:06:23;7.90;1.00
5415;DHT22;2730;51.512;7.504;2023-05-19T01:08:52;7.90;1.00
5415;DHT22;2730;51.512;7.504;2023-05-19T01:11:19;7.90;1.00
5415;DHT22;2730;51.512;7.504;2023-05-19T01:13:46;7.90;1.00
5415;DHT22;2730;51.512;7.504;2023-05-19T01:16:20;7.80;1.00
5415;DHT22;2730;51.512;7.504;2023-05-19T01:18:54;7.80;1.00
5415;DHT22;2730;51.512;7.504;2023-05-19T01:21:37;7.70;1.00
5415;DHT22;2730;51.512;7.504;2023-05-19T01:24:22;7.70;1.00
5415;DHT22;2730;51.512;7.504;2023-05-19T01:27:08;7.60;1.00
5415;DHT22;2730;51.512;7.504;2023-05-19T01:29:42;7.60;1.00
5415;DHT22;2730;51.512;7.504;2023-05-19T01:32:20;7.60;1.00
5415;DHT22;2730;51.512;7.504;2023-05-19T01:34:50;7.50;1.00
5415;DHT22;2730;51.512;7.504;2023-05-19T01:37:18;7.60;1.00
5415;DHT22;2730;51.512;7.504;2023-05-19T01:39:47;7.50;1.00
5415;DHT22;2730;51.512;7.504;2023-05-19T01:42:15;7.50;1.00
5415;DHT22;2730;51.512;7.504;2023-05-19T01:44:43;7.50;1.00
5415;DHT22;2730;51.512;7.504;2023-05-19T01:47:10;7.50;1.00
5415;DHT22;2730;51.512;7.504;2023-05-19T01:49:38;7.50;1.00
5415;DHT22;2730;51.512;7.504;2023-05-19T01:52:06;7.50;1.00
5415;DHT22;2730;51.512;7.504;2023-05-19T01:54:33;7.50;1.00
5415;DHT22;2730;51.512;7.504;2023-05-19T01:57:06;7.40;1.00
5415;DHT22;2730;51.512;7.504;2023-05-19T01:59:43;7.40;1.00
5415;DHT22;2730;51.512;7.504;2023-05-19T02:02:22;7.40;1.00
5415;DHT22;2730;51.512;7.504;2023-05-19T02:04:56;7.30;1.00
5415;DHT22;2730;51.512;7.504;2023-05-19T02:07:30;7.30;1.00
5415;DHT22;2730;51.512;7.504;2023-05-19T02:10:03;7.30;5.90
5415;DHT22;2730;51.512;7.504;2023-05-19T02:12:33;7.30;8.80
5415;DHT22;2730;51.512;7.504;2023-05-19T02:15:04;7.30;11.80
5415;DHT22;2730;51.512;7.504;2023-05-19T02:17:34;7.20;20.10
5415;DHT22;2730;51.512;7.504;2023-05-19T02:20:03;7.20;32.40
5415;DHT22;2730;51.512;7.504;2023-05-19T02:22:31;7.20;41.70
5415;DHT22;2730;51.512;7.504;2023-05-19T02:24:58;7.20;47.60
5415;DHT22;2730;51.512;7.504;2023-05-19T02:27:24;7.20;55.40
5415;DHT22;2730;51.512;7.504;2023-05-19T02:29:51;7.20;64.30
5415;DHT22;2730;51.512;7.504;2023-05-19T02:32:19;7.20;75.90
5415;DHT22;2730;51.512;7.504;2023-05-19T02:34:46;7.10;93.20
5415;DHT22;2730;51.512;7.504;2023-05-19T02:37:15;7.10;98.20
5415;DHT22;2730;51.512;7.504;2023-05-19T02:39:42;7.10;96.20
5415;DHT22;2730;51.512;7.504;2023-05-19T02:42:09;7.00;97.20
5415;DHT22;2730;51.512;7.504;2023-05-19T02:44:36;7.00;99.90
5415;DHT22;2730;51.512;7.504;2023-05-19T02:47:03;7.00;99.90
5415;DHT22;2730;51.512;7.504;2023-05-19T02:49:30;7.00;99.90
5415;DHT22;2730;51.512;7.504;2023-05-19T02:52:00;7.00;99.90
5415;DHT22;2730;51.512;7.504;2023-05-19T02:54:28;6.90;99.90
5415;DHT22;2730;51.512;7.504;2023-05-19T02:56:55;6.90;99.90
5415;DHT22;2730;51.512;7.504;2023-05-19T02:59:22;6.90;99.90
5415;DHT22;2730;51.512;7.504;2023-05-19T03:01:49;6.90;99.90
5415;DHT22;2730;51.512;7.504;2023-05-19T03:04:16;6.90;99.90
5415;DHT22;2730;51.512;7.504;2023-05-19T03:06:44;6.90;99.90
5415;DHT22;2730;51.512;7.504;2023-05-19T03:09:11;6.90;99.90
5415;DHT22;2730;51.512;7.504;2023-05-19T03:11:40;6.80;99.90
5415;DHT22;2730;51.512;7.504;2023-05-19T03:14:07;6.70;99.90
5415;DHT22;2730;51.512;7.504;2023-05-19T03:16:35;6.70;99.90
5415;DHT22;2730;51.512;7.504;2023-05-19T03:19:01;6.60;99.90
5415;DHT22;2730;51.512;7.504;2023-05-19T03:21:28;6.50;99.90
5415;DHT22;2730;51.512;7.504;2023-05-19T03:23:56;6.50;99.90
5415;DHT22;2730;51.512;7.504;2023-05-19T03:26:23;6.50;99.90
5415;DHT22;2730;51.512;7.504;2023-05-19T03:28:51;6.40;99.90
5415;DHT22;2730;51.512;7.504;2023-05-19T03:31:18;6.50;99.90
5415;DHT22;2730;51.512;7.504;2023-05-19T03:33:45;6.40;99.90
5415;DHT22;2730;51.512;7.504;2023-05-19T03:36:12;6.40;99.90
5415;DHT22;2730;51.512;7.504;2023-05-19T03:38:38;6.40;99.90
5415;DHT22;2730;51.512;7.504;2023-05-19T03:41:05;6.40;99.90
5415;DHT22;2730;51.512;7.504;2023-05-19T03:43:32;6.40;99.90
5415;DHT22;2730;51.512;7.504;2023-05-19T03:46:00;6.40;99.90
5415;DHT22;2730;51.512;7.504;2023-05-19T03:48:27;6.40;99.90
5415;DHT22;2730;51.512;7.504;2023-05-19T03:50:54;6.40;99.90
5415;DHT22;2730;51.512;7.504;2023-05-19T03:53:21;6.40;99.90
5415;DHT22;2730;51.512;7.504;2023-05-19T03:55:47;6.40;99.90
5415;DHT22;2730;51.512;7.504;2023-05-19T03:58:15;6.40;99.90
5415;DHT22;2730;51.512;7.504;2023-05-19T04:00:41;6.30;99.90
5415;DHT22;2730;51.512;7.504;2023-05-19T04:03:10;6.30;99.90
5415;DHT22;2730;51.512;7.504;2023-05-19T04:05:36;6.30;99.90
5415;DHT22;2730;51.512;7.504;2023-05-19T04:08:03;6.40;99.90
5415;DHT22;2730;51.512;7.504;2023-05-19T04:10:30;6.40;99.90
5415;DHT22;2730;51.512;7.504;2023-05-19T04:12:57;6.50;99.90
5415;DHT22;2730;51.512;7.504;2023-05-19T04:15:24;6.50;99.90
5415;DHT22;2730;51.512;7.504;2023-05-19T04:17:50;6.60;99.90
5415;DHT22;2730;51.512;7.504;2023-05-19T04:20:19;6.60;99.90
5415;DHT22;2730;51.512;7.504;2023-05-19T04:22:45;6.70;99.90
5415;DHT22;2730;51.512;7.504;2023-05-19T04:25:12;6.70;99.90
5415;DHT22;2730;51.512;7.504;2023-05-19T04:27:39;6.80;99.90
5415;DHT22;2730;51.512;7.504;2023-05-19T04:30:07;6.80;99.90
5415;DHT22;2730;51.512;7.504;2023-05-19T04:32:34;6.90;99.90
5415;DHT22;2730;51.512;7.504;2023-05-19T04:35:02;7.00;99.90
5415;DHT22;2730;51.512;7.504;2023-05-19T04:37:30;7.10;99.90
5415;DHT22;2730;51.512;7.504;2023-05-19T04:39:57;7.20;99.90
5415;DHT22;2730;51.512;7.504;2023-05-19T04:42:23;7.20;99.90
5415;DHT22;2730;51.512;7.504;2023-05-19T04:44:55;7.30;99.90
5415;DHT22;2730;51.512;7.504;2023-05-19T04:47:21;7.30;97.50
5415;DHT22;2730;51.512;7.504;2023-05-19T04:49:52;7.40;96.60
5415;DHT22;2730;51.512;7.504;2023-05-19T04:52:19;7.50;77.40
5415;DHT22;2730;51.512;7.504;2023-05-19T04:54:48;7.50;49.00
5415;DHT22;2730;51.512;7.504;2023-05-19T04:57:15;7.60;43.70
5415;DHT22;2730;51.512;7.504;2023-05-19T04:59:42;7.60;44.20
5415;DHT22;2730;51.512;7.504;2023-05-19T05:02:09;7.70;41.50
5415;DHT22;2730;51.512;7.504;2023-05-19T05:04:35;7.80;29.00
5415;DHT22;2730;51.512;7.504;2023-05-19T05:07:06;7.90;11.20
5415;DHT22;2730;51.512;7.504;2023-05-19T05:09:33;7.90;1.00
5415;DHT22;2730;51.512;7.504;2023-05-19T05:12:02;7.90;1.00
5415;DHT22;2730;51.512;7.504;2023-05-19T05:14:32;8.10;1.00
5415;DHT22;2730;51.512;7.504;2023-05-19T05:16:59;8.10;1.00
5415;DHT22;2730;51.512;7.504;2023-05-19T05:19:27;8.20;1.00
5415;DHT22;2730;51.512;7.504;2023-05-19T05:21:54;8.20;1.00
5415;DHT22;2730;51.512;7.504;2023-05-19T05:24:22;8.30;1.00
5415;DHT22;2730;51.512;7.504;2023-05-19T05:26:49;8.40;1.00
5415;DHT22;2730;51.512;7.504;2023-05-19T05:29:18;8.40;1.00
5415;DHT22;2730;51.512;7.504;2023-05-19T05:31:45;8.50;1.00
5415;DHT22;2730;51.512;7.504;2023-05-19T05:34:12;8.60;1.00
5415;DHT22;2730;51.512;7.504;2023-05-19T05:36:39;8.60;1.00
5415;DHT22;2730;51.512;7.504;2023-05-19T05:39:06;8.70;1.00
5415;DHT22;2730;51.512;7.504;2023-05-19T05:41:33;8.70;99.90
5415;DHT22;2730;51.512;7.504;2023-05-19T05:44:00;8.60;1.00
5415;DHT22;2730;51.512;7.504;2023-05-19T05:46:28;8.70;1.00
5415;DHT22;2730;51.512;7.504;2023-05-19T05:48:56;8.80;1.00
5415;DHT22;2730;51.512;7.504;2023-05-19T05:51:23;8.90;99.90
5415;DHT22;2730;51.512;7.504;2023-05-19T05:53:52;9.10;4.60
5415;DHT22;2730;51.512;7.504;2023-05-19T05:56:19;9.20;1.00
5415;DHT22;2730;51.512;7.504;2023-05-19T05:58:47;9.20;1.00
5415;DHT22;2730;51.512;7.504;2023-05-19T06:01:14;9.40;99.90
5415;DHT22;2730;51.512;7.504;2023-05-19T06:03:43;9.50;1.00
5415;DHT22;2730;51.512;7.504;2023-05-19T06:06:10;9.70;1.00
5415;DHT22;2730;51.512;7.504;2023-05-19T06:08:37;10.20;1.00
5415;DHT22;2730;51.512;7.504;2023-05-19T06:11:03;11.40;1.00
5415;DHT22;2730;51.512;7.504;2023-05-19T06:13:33;13.10;99.90
5415;DHT22;2730;51.512;7.504;2023-05-19T06:16:00;14.00;1.00
5415;DHT22;2730;51.512;7.504;2023-05-19T06:18:27;15.30;54.60
5415;DHT22;2730;51.512;7.504;2023-05-19T06:20:55;16.30;1.00
5415;DHT22;2730;51.512;7.504;2023-05-19T06:23:22;16.40;1.00
5415;DHT22;2730;51.512;7.504;2023-05-19T06:25:49;17.30;1.00
5415;DHT22;2730;51.512;7.504;2023-05-19T06:28:16;18.00;99.90
5415;DHT22;2730;51.512;7.504;2023-05-19T06:30:43;18.30;99.90
5415;DHT22;2730;51.512;7.504;2023-05-19T06:33:10;18.80;99.90
5415;DHT22;2730;51.512;7.504;2023-05-19T06:35:37;19.00;99.90
5415;DHT22;2730;51.512;7.504;2023-05-19T06:38:05;19.10;99.90
5415;DHT22;2730;51.512;7.504;2023-05-19T06:40:32;19.40;99.90
5415;DHT22;2730;51.512;7.504;2023-05-19T06:42:58;19.30;99.90
5415;DHT22;2730;51.512;7.504;2023-05-19T06:45:25;19.50;99.90
5415;DHT22;2730;51.512;7.504;2023-05-19T06:47:52;20.30;92.70
5415;DHT22;2730;51.512;7.504;2023-05-19T06:50:19;20.10;49.60
5415;DHT22;2730;51.512;7.504;2023-05-19T06:52:46;20.30;73.20
5415;DHT22;2730;51.512;7.504;2023-05-19T06:55:14;21.00;20.90
5415;DHT22;2730;51.512;7.504;2023-05-19T06:57:41;21.20;1.00
5415;DHT22;2730;51.512;7.504;2023-05-19T07:00:10;21.60;1.00
5415;DHT22;2730;51.512;7.504;2023-05-19T07:02:37;22.00;1.00
5415;DHT22;2730;51.512;7.504;2023-05-19T07:05:04;21.80;1.00
5415;DHT22;2730;51.512;7.504;2023-05-19T07:07:32;21.30;1.00
5415;DHT22;2730;51.512;7.504;2023-05-19T07:09:59;21.50;1.00
5415;DHT22;2730;51.512;7.504;2023-05-19T07:12:27;21.30;1.00
5415;DHT22;2730;51.512;7.504;2023-05-19T07:14:54;21.70;1.00
5415;DHT22;2730;51.512;7.504;2023-05-19T07:17:20;22.00;1.00
5415;DHT22;2730;51.512;7.504;2023-05-19T07:19:47;22.20;1.00
5415;DHT22;2730;51.512;7.504;2023-05-19T07:22:14;21.50;1.00
5415;DHT22;2730;51.512;7.504;2023-05-19T07:24:41;22.00;1.00
5415;DHT22;2730;51.512;7.504;2023-05-19T07:27:08;22.30;1.00
5415;DHT22;2730;51.512;7.504;2023-05-19T07:29:37;22.60;1.00
5415;DHT22;2730;51.512;7.504;2023-05-19T07:32:04;22.10;1.00
5415;DHT22;2730;51.512;7.504;2023-05-19T07:34:31;21.60;1.00
5415;DHT22;2730;51.512;7.504;2023-05-19T07:36:58;22.20;1.00
5415;DHT22;2730;51.512;7.504;2023-05-19T07:39:24;22.90;1.00
5415;DHT22;2730;51.512;7.504;2023-05-19T07:41:54;23.40;1.00
5415;DHT22;2730;51.512;7.504;2023-05-19T07:44:20;22.80;1.00
5415;DHT22;2730;51.512;7.504;2023-05-19T07:46:48;23.00;1.00
5415;DHT22;2730;51.512;7.504;2023-05-19T07:49:15;22.80;1.00
5415;DHT22;2730;51.512;7.504;2023-05-19T07:51:42;22.60;1.00
5415;DHT22;2730;51.512;7.504;2023-05-19T07:54:09;22.40;1.00
5415;DHT22;2730;51.512;7.504;2023-05-19T07:56:36;21.80;1.00
5415;DHT22;2730;51.512;7.504;2023-05-19T07:59:03;22.20;1.00
5415;DHT22;2730;51.512;7.504;2023-05-19T08:01:29;22.70;1.00
5415;DHT22;2730;51.512;7.504;2023-05-19T08:03:58;23.00;1.00
5415;DHT22;2730;51.512;7.504;2023-05-19T08:06:25;23.50;1.00
5415;DHT22;2730;51.512;7.504;2023-05-19T08:08:52;23.30;1.00
5415;DHT22;2730;51.512;7.504;2023-05-19T08:11:19;23.00;1.00
5415;DHT22;2730;51.512;7.504;2023-05-19T08:13:46;23.10;1.00
5415;DHT22;2730;51.512;7.504;2023-05-19T08:16:13;23.00;1.00
5415;DHT22;2730;51.512;7.504;2023-05-19T08:18:40;23.20;1.00
5415;DHT22;2730;51.512;7.504;2023-05-19T08:21:08;23.70;1.00
5415;DHT22;2730;51.512;7.504;2023-05-19T08:23:36;23.10;1.00
5415;DHT22;2730;51.512;7.504;2023-05-19T08:26:03;23.10;1.00
5415;DHT22;2730;51.512;7.504;2023-05-19T08:28:30;23.40;1.00
5415;DHT22;2730;51.512;7.504;2023-05-19T08:30:57;23.50;1.00
5415;DHT22;2730;51.512;7.504;2023-05-19T08:33:24;22.50;1.00
5415;DHT22;2730;51.512;7.504;2023-05-19T08:35:51;23.10;1.00
5415;DHT22;2730;51.512;7.504;2023-05-19T08:38:21;23.40;1.00
5415;DHT22;2730;51.512;7.504;2023-05-19T08:40:47;23.30;1.00
5415;DHT22;2730;51.512;7.504;2023-05-19T08:43:14;23.40;1.00
5415;DHT22;2730;51.512;7.504;2023-05-19T08:45:43;24.10;1.00
5415;DHT22;2730;51.512;7.504;2023-05-19T08:48:12;24.30;1.00
5415;DHT22;2730;51.512;7.504;2023-05-19T08:50:39;24.40;1.00
5415;DHT22;2730;51.512;7.504;2023-05-19T08:53:11;23.40;1.00
5415;DHT22;2730;51.512;7.504;2023-05-19T08:55:45;23.50;1.00
5415;DHT22;2730;51.512;7.504;2023-05-19T08:58:17;24.10;1.00
5415;DHT22;2730;51.512;7.504;2023-05-19T09:00:46;24.60;1.00
5415;DHT22;2730;51.512;7.504;2023-05-19T09:03:14;23.80;1.00
5415;DHT22;2730;51.512;7.504;2023-05-19T09:05:41;23.80;1.00
5415;DHT22;2730;51.512;7.504;2023-05-19T09:08:08;23.40;1.00
5415;DHT22;2730;51.512;7.504;2023-05-19T09:10:35;23.10;1.00
5415;DHT22;2730;51.512;7.504;2023-05-19T09:13:04;23.30;1.00
5415;DHT22;2730;51.512;7.504;2023-05-19T09:15:31;23.50;1.00
5415;DHT22;2730;51.512;7.504;2023-05-19T09:18:05;23.40;1.00
5415;DHT22;2730;51.512;7.504;2023-05-19T09:20:36;23.00;1.00
5415;DHT22;2730;51.512;7.504;2023-05-19T09:23:04;22.80;1.00
5415;DHT22;2730;51.512;7.504;2023-05-19T09:25:32;23.20;1.00
5415;DHT22;2730;51.512;7.504;2023-05-19T09:27:59;23.50;1.00
5415;DHT22;2730;51.512;7.504;2023-05-19T09:30:27;23.70;1.00
5415;DHT22;2730;51.512;7.504;2023-05-19T09:32:54;23.40;1.00
5415;DHT22;2730;51.512;7.504;2023-05-19T09:35:21;23.10;1.00
5415;DHT22;2730;51.512;7.504;2023-05-19T09:37:48;23.30;1.00
5415;DHT22;2730;51.512;7.504;2023-05-19T09:40:15;23.20;1.00
5415;DHT22;2730;51.512;7.504;2023-05-19T09:42:42;23.70;1.00
5415;DHT22;2730;51.512;7.504;2023-05-19T09:45:09;23.90;1.00
5415;DHT22;2730;51.512;7.504;2023-05-19T09:47:39;23.60;1.00
5415;DHT22;2730;51.512;7.504;2023-05-19T09:50:08;24.10;1.00
5415;DHT22;2730;51.512;7.504;2023-05-19T09:52:36;24.30;1.00
5415;DHT22;2730;51.512;7.504;2023-05-19T09:55:03;24.80;1.00
5415;DHT22;2730;51.512;7.504;2023-05-19T09:57:34;25.10;1.00
5415;DHT22;2730;51.512;7.504;2023-05-19T10:00:04;25.10;1.00
5415;DHT22;2730;51.512;7.504;2023-05-19T10:02:42;24.90;1.00
5415;DHT22;2730;51.512;7.504;2023-05-19T10:05:11;24.30;1.00
5415;DHT22;2730;51.512;7.504;2023-05-19T10:07:41;23.30;1.00
5415;DHT22;2730;51.512;7.504;2023-05-19T10:10:11;23.40;1.00
5415;DHT22;2730;51.512;7.504;2023-05-19T10:12:38;23.60;1.00
5415;DHT22;2730;51.512;7.504;2023-05-19T10:15:08;24.20;1.00
5415;DHT22;2730;51.512;7.504;2023-05-19T10:17:36;24.40;1.00
5415;DHT22;2730;51.512;7.504;2023-05-19T10:20:07;24.40;1.00
5415;DHT22;2730;51.512;7.504;2023-05-19T10:22:34;24.80;1.00
5415;DHT22;2730;51.512;7.504;2023-05-19T10:25:01;25.00;1.00
5415;DHT22;2730;51.512;7.504;2023-05-19T10:27:29;24.10;1.00
5415;DHT22;2730;51.512;7.504;2023-05-19T10:29:59;23.70;1.00
5415;DHT22;2730;51.512;7.504;2023-05-19T10:32:28;23.20;1.00
5415;DHT22;2730;51.512;7.504;2023-05-19T10:38:11;23.80;1.00
5415;DHT22;2730;51.512;7.504;2023-05-19T10:40:50;23.90;1.00
5415;DHT22;2730;51.512;7.504;2023-05-19T10:43:26;23.60;1.00
5415;DHT22;2730;51.512;7.504;2023-05-19T10:45:56;24.10;1.00
5415;DHT22;2730;51.512;7.504;2023-05-19T10:48:23;23.70;1.00
5415;DHT22;2730;51.512;7.504;2023-05-19T10:50:52;23.10;1.00
5415;DHT22;2730;51.512;7.504;2023-05-19T10:53:25;23.10;1.00
5415;DHT22;2730;51.512;7.504;2023-05-19T10:55:55;23.00;1.00
5415;DHT22;2730;51.512;7.504;2023-05-19T10:58:37;22.20;1.00
5415;DHT22;2730;51.512;7.504;2023-05-19T11:01:08;21.30;1.00
5415;DHT22;2730;51.512;7.504;2023-05-19T11:03:45;20.90;1.00
5415;DHT22;2730;51.512;7.504;2023-05-19T11:06:25;20.80;1.00
5415;DHT22;2730;51.512;7.504;2023-05-19T11:08:59;20.80;1.00
5415;DHT22;2730;51.512;7.504;2023-05-19T11:11:41;21.00;1.00
5415;DHT22;2730;51.512;7.504;2023-05-19T11:14:10;20.90;1.00
5415;DHT22;2730;51.512;7.504;2023-05-19T11:16:38;20.60;1.00
5415;DHT22;2730;51.512;7.504;2023-05-19T11:19:06;20.50;1.00
5415;DHT22;2730;51.512;7.504;2023-05-19T11:21:46;20.40;1.00
5415;DHT22;2730;51.512;7.504;2023-05-19T11:24:33;20.00;1.00
5415;DHT22;2730;51.512;7.504;2023-05-19T11:27:16;20.00;1.00
5415;DHT22;2730;51.512;7.504;2023-05-19T11:29:43;19.90;1.00
5415;DHT22;2730;51.512;7.504;2023-05-19T11:32:10;20.20;1.00
5415;DHT22;2730;51.512;7.504;2023-05-19T11:34:37;20.10;1.00
5415;DHT22;2730;51.512;7.504;2023-05-19T11:37:04;20.10;1.00
5415;DHT22;2730;51.512;7.504;2023-05-19T11:39:32;19.60;1.00
5415;DHT22;2730;51.512;7.504;2023-05-19T11:42:00;19.60;1.00
5415;DHT22;2730;51.512;7.504;2023-05-19T11:44:27;19.70;1.00
5415;DHT22;2730;51.512;7.504;2023-05-19T11:46:53;19.80;1.00
5415;DHT22;2730;51.512;7.504;2023-05-19T11:49:20;19.80;1.00
5415;DHT22;2730;51.512;7.504;2023-05-19T11:51:47;19.80;1.00
5415;DHT22;2730;51.512;7.504;2023-05-19T11:54:14;19.70;1.00
5415;DHT22;2730;51.512;7.504;2023-05-19T11:56:41;19.70;1.00
5415;DHT22;2730;51.512;7.504;2023-05-19T11:59:10;19.80;1.00
5415;DHT22;2730;51.512;7.504;2023-05-19T12:01:37;19.50;1.00
5415;DHT22;2730;51.512;7.504;2023-05-19T12:04:07;19.30;1.00
5415;DHT22;2730;51.512;7.504;2023-05-19T12:06:34;19.40;1.00
5415;DHT22;2730;51.512;7.504;2023-05-19T12:09:01;19.30;1.00
5415;DHT22;2730;51.512;7.504;2023-05-19T12:11:28;19.20;1.00
5415;DHT22;2730;51.512;7.504;2023-05-19T12:13:58;19.10;1.00
5415;DHT22;2730;51.512;7.504;2023-05-19T12:16:32;19.20;1.00
5415;DHT22;2730;51.512;7.504;2023-05-19T12:19:00;19.30;1.00
5415;DHT22;2730;51.512;7.504;2023-05-19T12:21:26;19.40;1.00
5415;DHT22;2730;51.512;7.504;2023-05-19T12:23:54;19.50;1.00
5415;DHT22;2730;51.512;7.504;2023-05-19T12:26:21;19.40;1.00
5415;DHT22;2730;51.512;7.504;2023-05-19T12:28:49;19.50;1.00
5415;DHT22;2730;51.512;7.504;2023-05-19T12:31:17;19.40;1.00
5415;DHT22;2730;51.512;7.504;2023-05-19T12:33:47;19.60;1.00
5415;DHT22;2730;51.512;7.504;2023-05-19T12:36:16;19.60;1.00
5415;DHT22;2730;51.512;7.504;2023-05-19T12:38:43;19.70;1.00
5415;DHT22;2730;51.512;7.504;2023-05-19T12:41:10;19.40;1.00
5415;DHT22;2730;51.512;7.504;2023-05-19T12:43:37;19.50;1.00
5415;DHT22;2730;51.512;7.504;2023-05-19T12:46:13;19.60;1.00
5415;DHT22;2730;51.512;7.504;2023-05-19T12:48:43;19.70;1.00
5415;DHT22;2730;51.512;7.504;2023-05-19T12:51:15;19.70;1.00
5415;DHT22;2730;51.512;7.504;2023-05-19T12:53:42;19.80;1.00
5415;DHT22;2730;51.512;7.504;2023-05-19T12:56:12;19.70;1.00
5415;DHT22;2730;51.512;7.504;2023-05-19T12:58:39;19.70;1.00
5415;DHT22;2730;51.512;7.504;2023-05-19T13:01:11;19.80;1.00
5415;DHT22;2730;51.512;7.504;2023-05-19T13:03:40;19.70;1.00
5415;DHT22;2730;51.512;7.504;2023-05-19T13:06:07;19.60;1.00
5415;DHT22;2730;51.512;7.504;2023-05-19T13:08:36;19.60;1.00
5415;DHT22;2730;51.512;7.504;2023-05-19T13:11:04;19.60;1.00
5415;DHT22;2730;51.512;7.504;2023-05-19T13:13:30;19.70;1.00
5415;DHT22;2730;51.512;7.504;2023-05-19T13:15:57;19.60;1.00
5415;DHT22;2730;51.512;7.504;2023-05-19T13:18:24;19.50;1.00
5415;DHT22;2730;51.512;7.504;2023-05-19T13:20:52;19.60;1.00
5415;DHT22;2730;51.512;7.504;2023-05-19T13:23:19;19.60;1.00
5415;DHT22;2730;51.512;7.504;2023-05-19T13:25:48;19.60;1.00
5415;DHT22;2730;51.512;7.504;2023-05-19T13:28:15;19.60;1.00
5415;DHT22;2730;51.512;7.504;2023-05-19T13:30:42;19.70;1.00
5415;DHT22;2730;51.512;7.504;2023-05-19T13:33:09;19.50;1.00
5415;DHT22;2730;51.512;7.504;2023-05-19T13:35:37;19.40;1.00
5415;DHT22;2730;51.512;7.504;2023-05-19T13:38:04;19.50;1.00
5415;DHT22;2730;51.512;7.504;2023-05-19T13:40:31;19.40;1.00
5415;DHT22;2730;51.512;7.504;2023-05-19T13:43:00;19.40;1.00
5415;DHT22;2730;51.512;7.504;2023-05-19T13:45:27;19.40;1.00
5415;DHT22;2730;51.512;7.504;2023-05-19T13:47:54;19.60;1.00
5415;DHT22;2730;51.512;7.504;2023-05-19T13:50:21;19.80;1.00
5415;DHT22;2730;51.512;7.504;2023-05-19T13:52:49;19.80;1.00
5415;DHT22;2730;51.512;7.504;2023-05-19T13:55:16;19.70;1.00
5415;DHT22;2730;51.512;7.504;2023-05-19T13:57:43;19.60;1.00
5415;DHT22;2730;51.512;7.504;2023-05-19T14:00:12;19.50;1.00
5415;DHT22;2730;51.512;7.504;2023-05-19T14:02:39;19.50;1.00
5415;DHT22;2730;51.512;7.504;2023-05-19T14:05:07;19.50;1.00
5415;DHT22;2730;51.512;7.504;2023-05-19T14:07:33;19.40;1.00
5415;DHT22;2730;51.512;7.504;2023-05-19T14:10:00;19.50;1.00
5415;DHT22;2730;51.512;7.504;2023-05-19T14:12:28;19.60;1.00
5415;DHT22;2730;51.512;7.504;2023-05-19T14:14:55;19.50;1.00
5415;DHT22;2730;51.512;7.504;2023-05-19T14:17:25;19.70;1.00
5415;DHT22;2730;51.512;7.504;2023-05-19T14:19:52;19.60;1.00
5415;DHT22;2730;51.512;7.504;2023-05-19T14:22:18;19.50;1.00
5415;DHT22;2730;51.512;7.504;2023-05-19T14:24:45;19.60;1.00
5415;DHT22;2730;51.512;7.504;2023-05-19T14:27:12;19.70;1.00
5415;DHT22;2730;51.512;7.504;2023-05-19T14:29:39;19.60;1.00
5415;DHT22;2730;51.512;7.504;2023-05-19T14:32:06;19.60;1.00
5415;DHT22;2730;51.512;7.504;2023-05-19T14:34:34;19.70;1.00
5415;DHT22;2730;51.512;7.504;2023-05-19T14:37:01;19.70;1.00
5415;DHT22;2730;51.512;7.504;2023-05-19T14:39:28;20.00;1.00
5415;DHT22;2730;51.512;7.504;2023-05-19T14:41:56;20.00;1.00
5415;DHT22;2730;51.512;7.504;2023-05-19T14:44:24;19.90;1.00
5415;DHT22;2730;51.512;7.504;2023-05-19T14:46:50;19.80;1.00
5415;DHT22;2730;51.512;7.504;2023-05-19T14:49:17;19.70;1.00
5415;DHT22;2730;51.512;7.504;2023-05-19T14:51:45;19.60;1.00
5415;DHT22;2730;51.512;7.504;2023-05-19T14:54:12;19.60;1.00
5415;DHT22;2730;51.512;7.504;2023-05-19T14:56:38;19.70;1.00
5415;DHT22;2730;51.512;7.504;2023-05-19T14:59:05;19.70;1.00
5415;DHT22;2730;51.512;7.504;2023-05-19T15:01:32;19.70;1.00
5415;DHT22;2730;51.512;7.504;2023-05-19T15:03:59;19.80;1.00
5415;DHT22;2730;51.512;7.504;2023-05-19T15:06:25;19.90;1.00
5415;DHT22;2730;51.512;7.504;2023-05-19T15:08:53;19.90;1.00
5415;DHT22;2730;51.512;7.504;2023-05-19T15:11:20;19.80;1.00
5415;DHT22;2730;51.512;7.504;2023-05-19T15:13:47;19.70;1.00
5415;DHT22;2730;51.512;7.504;2023-05-19T15:16:14;19.90;1.00
5415;DHT22;2730;51.512;7.504;2023-05-19T15:18:40;20.10;1.00
5415;DHT22;2730;51.512;7.504;2023-05-19T15:21:07;20.10;1.00
5415;DHT22;2730;51.512;7.504;2023-05-19T15:23:34;20.10;1.00
5415;DHT22;2730;51.512;7.504;2023-05-19T15:26:02;20.10;1.00
5415;DHT22;2730;51.512;7.504;2023-05-19T15:28:29;19.90;1.00
5415;DHT22;2730;51.512;7.504;2023-05-19T15:30:56;19.70;1.00
5415;DHT22;2730;51.512;7.504;2023-05-19T15:33:23;19.60;1.00
5415;DHT22;2730;51.512;7.504;2023-05-19T15:35:50;19.50;1.00
5415;DHT22;2730;51.512;7.504;2023-05-19T15:38:17;19.60;1.00
5415;DHT22;2730;51.512;7.504;2023-05-19T15:40:44;19.60;1.00
5415;DHT22;2730;51.512;7.504;2023-05-19T15:43:12;19.60;1.00
5415;DHT22;2730;51.512;7.504;2023-05-19T15:45:39;19.40;1.00
5415;DHT22;2730;51.512;7.504;2023-05-19T15:48:06;19.50;1.00
5415;DHT22;2730;51.512;7.504;2023-05-19T15:50:33;19.60;1.00
5415;DHT22;2730;51.512;7.504;2023-05-19T15:52:59;19.60;1.00
5415;DHT22;2730;51.512;7.504;2023-05-19T15:55:26;19.70;1.00
5415;DHT22;2730;51.512;7.504;2023-05-19T15:57:53;19.60;1.00
5415;DHT22;2730;51.512;7.504;2023-05-19T16:00:21;19.50;1.00
5415;DHT22;2730;51.512;7.504;2023-05-19T16:02:48;19.40;1.00
5415;DHT22;2730;51.512;7.504;2023-05-19T16:05:15;19.20;1.00
5415;DHT22;2730;51.512;7.504;2023-05-19T16:07:42;19.20;1.00
5415;DHT22;2730;51.512;7.504;2023-05-19T16:10:08;19.20;1.00
5415;DHT22;2730;51.512;7.504;2023-05-19T16:12:35;19.20;1.00
5415;DHT22;2730;51.512;7.504;2023-05-19T16:15:03;19.20;1.00
5415;DHT22;2730;51.512;7.504;2023-05-19T16:17:31;19.30;1.00
5415;DHT22;2730;51.512;7.504;2023-05-19T16:19:58;19.20;1.00
5415;DHT22;2730;51.512;7.504;2023-05-19T16:22:25;19.10;1.00
5415;DHT22;2730;51.512;7.504;2023-05-19T16:24:51;19.20;1.00
5415;DHT22;2730;51.512;7.504;2023-05-19T16:27:18;19.20;1.00